Terminal Aerodrome Forecast
Issued by NWS

Home | Current Version | Previous Version | Graphics & Text | Print | Product List | Glossary On
Versions: 1 2 3 4 5 6 7 8 9 10 11 12 13 14 15 16 17 18 19 20 21 22 23 24 25 26 27
000
FTUS43 KABR 240200 AAB
TAFATY
TAF AMD
KATY 240221Z 2402/2424 34014KT P6SM OVC007
      TEMPO 2402/2406 OVC004
     FM240800 33015KT P6SM OVC005
      TEMPO 2410/2414 3SM BR OVC002
     FM241500 27012KT P6SM SCT010 OVC050=

USA.gov is the U.S. government's official web portal to all federal, state and local government web resources and services.